Time;durP1;ratioP1;P1;durP2;ratioP2;P2;SDS_P1;SDS_P2;PMS_P1;PMS_P2;Temp;Humidity;BMP_temperature;BMP_pressure;BME280_temperature;BME280_humidity;BME280_pressure;Samples;Min_cycle;Max_cycle;Signal;HPM_P1;HPM_P2
2023/03/13 00:01:22;;;;;;;44.90;8.90;;;;;;;8.41;100.00;100166.75;5051855;28;20079;-59
2023/03/13 00:03:48;;;;;;;41.45;8.48;;;;;;;8.39;100.00;100161.59;5052427;28;20415;-59
2023/03/13 00:06:14;;;;;;;38.67;8.70;;;;;;;8.40;100.00;100160.75;5051432;28;20060;-59
2023/03/13 00:08:40;;;;;;;54.83;9.07;;;;;;;8.32;100.00;100145.97;5052137;28;20096;-59
2023/03/13 00:11:10;;;;;;;35.50;8.75;;;;;;;8.32;100.00;100135.69;5051978;28;20131;-59
2023/03/13 00:13:36;;;;;;;49.10;9.57;;;;;;;8.28;100.00;100128.75;5051749;28;20038;-59
2023/03/13 00:16:03;;;;;;;45.42;9.23;;;;;;;8.24;100.00;100127.78;5051910;28;20135;-59
2023/03/13 00:18:29;;;;;;;46.03;9.48;;;;;;;8.25;100.00;100119.25;5055030;28;20104;-60
2023/03/13 00:21:02;;;;;;;44.63;8.88;;;;;;;8.21;100.00;100120.88;5055343;28;20532;-59
2023/03/13 00:23:28;;;;;;;53.00;9.68;;;;;;;8.18;100.00;100109.66;5055812;28;20032;-59
2023/03/13 00:26:03;;;;;;;49.70;10.60;;;;;;;8.14;100.00;100108.69;5055748;28;20021;-59
2023/03/13 00:28:31;;;;;;;46.75;10.13;;;;;;;8.08;100.00;100101.69;5055644;28;20077;-60
2023/03/13 00:31:01;;;;;;;;;;;;;;;8.14;100.00;100100.97;5055678;28;20480;-60
2023/03/13 00:33:26;;;;;;;47.88;9.77;;;;;;;8.07;100.00;100099.09;5055951;28;19936;-60
2023/03/13 00:35:51;;;;;;;45.38;9.07;;;;;;;8.03;100.00;100082.75;5055221;28;20489;-60
2023/03/13 00:38:16;;;;;;;50.03;9.32;;;;;;;8.01;100.00;100073.25;5055061;28;20044;-59
2023/03/13 00:40:42;;;;;;;47.45;10.05;;;;;;;8.00;100.00;100071.50;5055708;28;20029;-59
2023/03/13 00:43:07;;;;;;;54.55;10.63;;;;;;;7.98;100.00;100057.75;5054720;28;20033;-59
2023/03/13 00:45:32;;;;;;;51.10;11.90;;;;;;;7.98;100.00;100052.63;5055530;28;20039;-59
2023/03/13 00:47:57;;;;;;;52.10;10.75;;;;;;;7.96;100.00;100052.59;5054718;28;20071;-59
2023/03/13 00:50:23;;;;;;;45.70;10.35;;;;;;;7.96;100.00;100054.31;5055476;28;20029;-59
2023/03/13 00:52:48;;;;;;;45.58;9.68;;;;;;;7.96;100.00;100044.03;5055374;28;20029;-59
2023/03/13 00:55:13;;;;;;;48.03;9.98;;;;;;;7.97;100.00;100038.94;5054576;28;20400;-59
2023/03/13 00:57:39;;;;;;;48.03;9.73;;;;;;;7.96;100.00;100032.06;5055101;28;20025;-60
2023/03/13 01:00:05;;;;;;;56.95;11.13;;;;;;;7.97;100.00;100027.81;5055171;28;20461;-59
2023/03/13 01:02:30;;;;;;;50.50;10.93;;;;;;;8.00;100.00;100015.06;5054910;28;20121;-59
2023/03/13 01:04:56;;;;;;;50.47;10.75;;;;;;;7.98;100.00;100016.69;5054849;28;20425;-59
2023/03/13 01:07:21;;;;;;;49.53;11.43;;;;;;;7.99;100.00;100005.63;5055080;28;20581;-59
2023/03/13 01:09:46;;;;;;;44.47;11.63;;;;;;;8.00;100.00;100009.94;5054551;28;20037;-59
2023/03/13 01:12:11;;;;;;;55.67;11.50;;;;;;;8.01;100.00;99996.28;5054440;28;20059;-59
2023/03/13 01:14:37;;;;;;;51.38;13.20;;;;;;;8.03;100.00;99994.59;5055234;28;20036;-59
2023/03/13 01:17:02;;;;;;;49.78;11.77;;;;;;;8.04;100.00;99992.09;5054239;28;20478;-59
2023/03/13 01:19:27;;;;;;;46.47;12.73;;;;;;;8.05;100.00;99977.56;5054668;28;20040;-59
2023/03/13 01:21:53;;;;;;;58.55;13.55;;;;;;;8.11;100.00;99971.69;5054921;28;20029;-59
2023/03/13 01:24:19;;;;;;;50.63;13.50;;;;;;;8.14;100.00;99975.22;5054215;28;20032;-59
2023/03/13 01:26:44;;;;;;;41.55;14.75;;;;;;;8.20;100.00;99959.97;5054596;28;20426;-59
2023/03/13 01:29:10;;;;;;;54.13;13.93;;;;;;;8.23;100.00;99956.63;5053299;28;20158;-60
2023/03/13 01:31:35;;;;;;;49.45;13.73;;;;;;;8.24;100.00;99950.66;5054114;28;20577;-59
2023/03/13 01:34:03;;;;;;;48.72;14.30;;;;;;;8.28;100.00;99949.91;5054281;28;20090;-60
2023/03/13 01:36:28;;;;;;;;;;;;;;;8.34;100.00;99951.72;5055042;28;20384;-59
2023/03/13 01:38:56;;;;;;;41.67;13.00;;;;;;;8.37;100.00;99950.13;5053713;28;19912;-60
2023/03/13 01:41:23;;;;;;;33.20;12.98;;;;;;;8.42;100.00;99937.41;5054512;28;20025;-59
2023/03/13 01:43:48;;;;;;;40.08;14.27;;;;;;;8.50;100.00;99932.47;5054732;28;20025;-60
2023/03/13 01:46:18;;;;;;;38.60;13.27;;;;;;;8.53;100.00;99927.41;5053748;28;20500;-59
2023/03/13 01:49:06;;;;;;;35.28;12.93;;;;;;;8.57;100.00;99922.38;5054224;28;20028;-60
2023/03/13 01:51:36;;;;;;;39.67;12.18;;;;;;;8.62;100.00;99913.91;5053746;28;20090;-59
2023/03/13 01:54:04;;;;;;;33.60;11.95;;;;;;;8.68;100.00;99903.78;5054220;28;20017;-60
2023/03/13 01:56:48;;;;;;;34.22;11.18;;;;;;;8.72;100.00;99908.13;5054493;28;20032;-60
2023/03/13 01:59:17;;;;;;;41.22;11.35;;;;;;;8.73;100.00;99891.91;5053341;28;20033;-59
2023/03/13 02:01:45;;;;;;;35.33;11.25;;;;;;;8.77;100.00;99885.13;5054027;28;20032;-60
2023/03/13 02:04:15;;;;;;;28.75;9.52;;;;;;;8.81;100.00;99884.34;5053791;28;20102;-59
2023/03/13 02:06:44;;;;;;;29.33;10.05;;;;;;;8.85;100.00;99871.59;5053512;28;20182;-60
2023/03/13 02:09:16;;;;;;;29.67;8.98;;;;;;;8.92;100.00;99869.16;5053329;28;20021;-60
2023/03/13 02:11:47;;;;;;;28.23;9.05;;;;;;;8.99;100.00;99848.75;5054125;28;20028;-60
2023/03/13 02:14:12;;;;;;;25.48;8.77;;;;;;;9.03;100.00;99855.69;5053117;28;20116;-60
2023/03/13 02:16:38;;;;;;;28.60;8.77;;;;;;;9.08;100.00;99837.78;5053548;28;20112;-60
2023/03/13 02:19:16;;;;;;;30.08;9.48;;;;;;;9.14;100.00;99848.19;5053533;28;20151;-60
2023/03/13 02:21:48;;;;;;;26.58;8.38;;;;;;;9.18;100.00;99839.69;5053537;28;20021;-59
2023/03/13 02:24:34;;;;;;;22.85;9.50;;;;;;;9.24;100.00;99815.78;5053324;28;20036;-59
2023/03/13 02:26:59;;;;;;;25.65;8.48;;;;;;;9.27;100.00;99804.69;5052650;28;20024;-59
2023/03/13 02:29:25;;;;;;;19.95;8.38;;;;;;;9.29;100.00;99795.31;5053484;28;20040;-60
2023/03/13 02:31:51;;;;;;;25.92;8.77;;;;;;;9.30;100.00;99782.47;5053310;28;20029;-59
2023/03/13 02:34:23;;;;;;;22.25;8.98;;;;;;;9.31;100.00;99783.34;5052442;28;20511;-60
2023/03/13 02:36:49;;;;;;;23.13;8.98;;;;;;;9.35;100.00;99796.28;5053170;28;20033;-59
2023/03/13 02:39:17;;;;;;;21.27;9.65;;;;;;;9.36;100.00;99797.13;5053264;28;20029;-59
2023/03/13 02:41:44;;;;;;;22.73;9.52;;;;;;;9.43;100.00;99803.28;5052725;28;20029;-59
2023/03/13 02:44:10;;;;;;;;;;;;;;;9.46;100.00;99799.03;5053376;28;20354;-60
2023/03/13 02:46:49;;;;;;;23.03;9.37;;;;;;;9.49;100.00;99787.94;5053288;28;19966;-60
2023/03/13 02:49:40;;;;;;;22.02;9.68;;;;;;;9.53;100.00;99802.59;5052431;28;20263;-60
2023/03/13 02:52:20;;;;;;;20.63;9.63;;;;;;;9.51;100.00;99802.56;5051561;28;20037;-59
2023/03/13 02:54:49;;;;;;;23.92;10.25;;;;;;;9.51;100.00;99787.13;5053067;28;20452;-60
2023/03/13 02:57:14;;;;;;;21.27;11.05;;;;;;;9.55;100.00;99781.22;5052572;28;20036;-60
2023/03/13 02:59:40;;;;;;;21.92;10.52;;;;;;;9.59;100.00;99787.25;5053131;28;20024;-60
2023/03/13 03:02:05;;;;;;;22.70;11.02;;;;;;;9.61;100.00;99789.88;5052184;28;20014;-60
2023/03/13 03:04:30;;;;;;;23.27;11.95;;;;;;;9.66;100.00;99790.81;5052569;28;20025;-60
2023/03/13 03:06:56;;;;;;;21.52;11.55;;;;;;;9.69;100.00;99790.84;5052424;28;20559;-60
2023/03/13 03:09:22;;;;;;;23.50;11.82;;;;;;;9.72;100.00;99793.47;5052476;28;20028;-60
2023/03/13 03:11:48;;;;;;;18.85;11.30;;;;;;;9.76;100.00;99790.13;5052658;28;20033;-59
2023/03/13 03:14:14;;;;;;;25.02;12.23;;;;;;;9.77;100.00;99794.41;5052563;28;20044;-60
2023/03/13 03:16:39;;;;;;;18.33;11.85;;;;;;;9.82;100.00;99792.75;5052226;28;20025;-59
2023/03/13 03:19:05;;;;;;;23.45;11.80;;;;;;;9.86;100.00;99786.84;5052064;28;20369;-60
2023/03/13 03:21:31;;;;;;;26.30;11.48;;;;;;;9.88;100.00;99784.28;5053044;28;20076;-59
2023/03/13 03:23:56;;;;;;;20.90;12.00;;;;;;;9.92;100.00;99782.63;5051965;28;20028;-59
2023/03/13 03:26:22;;;;;;;23.88;12.32;;;;;;;9.96;100.00;99776.69;5052589;28;20044;-59
2023/03/13 03:28:47;;;;;;;19.25;11.45;;;;;;;10.00;100.00;99781.03;5052743;28;20079;-59
2023/03/13 03:31:14;;;;;;;18.30;11.35;;;;;;;10.01;100.00;99775.03;5051792;28;20029;-60
2023/03/13 03:33:41;;;;;;;19.55;11.70;;;;;;;10.03;100.00;99761.34;5052349;28;20025;-60
2023/03/13 03:36:09;;;;;;;21.70;11.43;;;;;;;10.05;100.00;99779.38;5052491;28;20059;-59
2023/03/13 03:38:35;;;;;;;16.42;11.63;;;;;;;10.08;100.00;99769.13;5051780;28;20055;-59
2023/03/13 03:41:01;;;;;;;16.80;11.52;;;;;;;10.12;100.00;99765.78;5051929;28;20029;-59
2023/03/13 03:43:26;;;;;;;18.48;11.80;;;;;;;10.11;100.00;99765.72;5052899;28;20017;-59
2023/03/13 03:45:51;;;;;;;17.25;11.93;;;;;;;10.15;100.00;99776.09;5051797;28;20388;-59
2023/03/13 03:48:17;;;;;;;16.88;10.93;;;;;;;10.16;100.00;99761.50;5052178;28;20032;-59
2023/03/13 03:50:42;;;;;;;19.38;11.25;;;;;;;10.15;100.00;99770.09;5052071;28;20476;-59
2023/03/13 03:53:08;;;;;;;19.20;12.15;;;;;;;10.17;100.00;99766.69;5054448;28;20389;-59
2023/03/13 03:55:34;;;;;;;18.70;12.50;;;;;;;10.16;100.00;99776.94;5056681;28;20053;-59
2023/03/13 03:57:59;;;;;;;21.65;12.70;;;;;;;10.18;100.00;99775.28;5055530;28;20382;-59
2023/03/13 04:00:26;;;;;;;19.83;12.60;;;;;;;10.21;100.00;99765.00;5056163;28;20033;-59
2023/03/13 04:02:52;;;;;;;18.13;12.20;;;;;;;10.25;100.00;99761.66;5056373;28;20419;-59
2023/03/13 04:05:17;;;;;;;17.73;12.50;;;;;;;10.26;100.00;99767.66;5055710;28;20100;-59
2023/03/13 04:07:42;;;;;;;20.40;12.68;;;;;;;10.28;100.00;99760.84;5055849;28;20049;-59
2023/03/13 04:10:08;;;;;;;22.23;13.07;;;;;;;10.31;100.00;99760.84;5056100;28;20021;-59
2023/03/13 04:12:34;;;;;;;24.85;13.55;;;;;;;10.31;100.00;99766.84;5055691;28;20607;-59
2023/03/13 04:14:59;;;;;;;19.73;13.48;;;;;;;10.34;100.00;99751.47;5055661;28;20029;-59
2023/03/13 04:17:24;;;;;;;24.95;13.15;;;;;;;10.38;100.00;99757.56;5056297;28;20515;-59
2023/03/13 04:19:50;;;;;;;20.30;13.23;;;;;;;10.40;100.00;99749.84;5055687;28;20380;-59
2023/03/13 04:22:15;;;;;;;22.27;13.68;;;;;;;10.44;100.00;99749.88;5055762;28;20487;-59
2023/03/13 04:24:40;;;;;;;19.65;12.90;;;;;;;10.44;100.00;99742.16;5056001;28;20361;-59
2023/03/13 04:27:06;;;;;;;20.23;12.55;;;;;;;10.49;100.00;99730.19;5055157;28;20079;-59
2023/03/13 04:29:32;;;;;;;23.85;11.80;;;;;;;10.56;100.00;99730.28;5055653;28;20021;-59
2023/03/13 04:31:57;;;;;;;16.90;11.07;;;;;;;10.60;100.00;99721.72;5055331;28;20054;-59
2023/03/13 04:34:23;;;;;;;17.52;10.95;;;;;;;10.64;100.00;99724.38;5055679;28;20029;-59
2023/03/13 04:36:48;;;;;;;18.02;10.73;;;;;;;10.66;100.00;99711.50;5055778;28;20163;-59
2023/03/13 04:39:13;;;;;;;20.85;10.88;;;;;;;10.69;100.00;99712.41;5055445;28;20028;-60
2023/03/13 04:41:39;;;;;;;15.00;9.45;;;;;;;10.78;100.00;99698.75;5055291;28;20077;-59
2023/03/13 04:44:04;;;;;;;16.15;9.70;;;;;;;10.81;100.00;99701.34;5055189;28;20473;-59
2023/03/13 04:46:30;;;;;;;14.45;9.10;;;;;;;10.83;100.00;99703.94;5055568;28;20028;-59
2023/03/13 04:48:55;;;;;;;14.75;9.10;;;;;;;10.89;100.00;99693.69;5054675;28;20029;-59
2023/03/13 04:51:20;;;;;;;18.15;9.20;;;;;;;10.93;100.00;99692.00;5055445;28;20104;-59
2023/03/13 04:53:45;;;;;;;14.52;8.50;;;;;;;10.99;100.00;99697.25;5055557;28;20037;-59
2023/03/13 04:56:20;;;;;;;15.77;7.88;;;;;;;11.07;100.00;99692.16;5054437;28;20087;-59
2023/03/13 04:58:45;;;;;;;14.80;8.13;;;;;;;11.11;100.00;99699.06;5055417;28;20111;-59
2023/03/13 05:01:11;;;;;;;13.95;7.97;;;;;;;11.11;100.00;99699.06;5054520;28;20125;-59
2023/03/13 05:03:36;;;;;;;13.00;8.02;;;;;;;11.10;100.00;99677.53;5054997;28;20033;-59
2023/03/13 05:06:01;;;;;;;14.82;7.40;;;;;;;11.16;100.00;99687.91;5054895;28;20049;-59
2023/03/13 05:08:26;;;;;;;12.93;6.93;;;;;;;11.23;100.00;99680.25;5054889;28;20029;-59
2023/03/13 05:10:52;;;;;;;14.40;7.65;;;;;;;11.25;100.00;99663.06;5055131;28;20021;-59
2023/03/13 05:13:17;;;;;;;12.02;6.35;;;;;;;11.28;100.00;99675.97;5054846;28;20071;-59
2023/03/13 05:15:43;;;;;;;12.50;6.60;;;;;;;11.33;100.00;99669.16;5054435;28;20107;-59
2023/03/13 05:18:08;;;;;;;12.15;6.63;;;;;;;11.38;100.00;99677.78;5054637;28;20078;-59
2023/03/13 05:20:33;;;;;;;11.57;6.55;;;;;;;11.40;100.00;99683.81;5054887;28;20487;-59
2023/03/13 05:22:59;;;;;;;15.25;5.93;;;;;;;11.40;100.00;99673.50;5054030;28;20560;-59
2023/03/13 05:25:24;;;;;;;12.82;5.80;;;;;;;11.48;100.00;99670.97;5054775;28;20025;-59
2023/03/13 05:27:49;;;;;;;15.18;5.93;;;;;;;11.51;100.00;99666.69;5054893;28;20032;-59
2023/03/13 05:30:14;;;;;;;11.13;6.13;;;;;;;11.55;100.00;99653.81;5053836;28;20116;-59
2023/03/13 05:32:40;;;;;;;15.23;5.57;;;;;;;11.59;100.00;99660.72;5054745;28;20040;-59
2023/03/13 05:35:05;;;;;;;14.05;5.60;;;;;;;11.60;100.00;99662.44;5054394;28;20025;-59
2023/03/13 05:37:30;;;;;;;12.98;6.25;;;;;;;11.59;100.00;99660.72;5054424;28;20037;-59
2023/03/13 05:39:56;;;;;;;12.82;5.40;;;;;;;11.63;100.00;99672.78;5054141;28;20389;-59
2023/03/13 05:42:21;;;;;;;13.95;5.80;;;;;;;11.66;100.00;99659.91;5054739;28;20025;-59
2023/03/13 05:44:46;;;;;;;12.02;5.38;;;;;;;11.69;100.00;99672.84;5054014;28;20362;-59
2023/03/13 05:47:12;;;;;;;14.85;5.63;;;;;;;11.69;100.00;99658.19;5053941;28;20054;-59
2023/03/13 05:49:37;;;;;;;13.27;6.07;;;;;;;11.73;100.00;99659.09;5054455;28;20374;-59
2023/03/13 05:52:02;;;;;;;12.02;5.53;;;;;;;11.70;100.00;99671.97;5053502;28;20468;-59
2023/03/13 05:54:27;;;;;;;13.85;5.50;;;;;;;11.75;100.00;99665.13;5054384;28;20029;-59
2023/03/13 05:56:53;;;;;;;16.13;5.32;;;;;;;11.75;100.00;99662.53;5054357;28;20028;-59
2023/03/13 05:59:18;;;;;;;12.27;4.90;;;;;;;11.77;100.00;99671.16;5053283;28;20108;-59
2023/03/13 06:01:43;;;;;;;12.30;5.03;;;;;;;11.79;100.00;99674.59;5054086;28;20373;-59
2023/03/13 06:04:09;;;;;;;13.70;5.10;;;;;;;11.77;100.00;99670.28;5053931;28;20028;-59
2023/03/13 06:06:34;;;;;;;12.25;4.88;;;;;;;11.77;100.00;99678.88;5052916;28;20123;-58
2023/03/13 06:08:59;;;;;;;12.82;4.80;;;;;;;11.80;100.00;99665.13;5053495;28;20033;-59
2023/03/13 06:11:25;;;;;;;12.32;5.00;;;;;;;11.80;100.00;99663.44;5053393;28;20058;-59
2023/03/13 06:13:51;;;;;;;10.90;4.95;;;;;;;11.79;100.00;99674.59;5053693;28;20108;-59
2023/03/13 06:16:17;;;;;;;14.43;5.97;;;;;;;11.86;100.00;99663.47;5052772;28;20054;-59
2023/03/13 06:18:42;;;;;;;14.05;5.13;;;;;;;11.93;100.00;99654.03;5053039;28;20032;-59
2023/03/13 06:21:07;;;;;;;12.10;4.88;;;;;;;11.92;100.00;99648.88;5052987;28;20027;-59
2023/03/13 06:23:34;;;;;;;15.43;5.22;;;;;;;11.88;100.00;99641.94;5053655;28;20029;-59
2023/03/13 06:25:59;;;;;;;14.30;5.32;;;;;;;11.92;100.00;99647.13;5052876;28;20029;-59
2023/03/13 06:28:24;;;;;;;15.75;4.70;;;;;;;11.92;100.00;99644.56;5053360;28;20027;-59
2023/03/13 06:30:50;;;;;;;12.95;4.32;;;;;;;11.91;100.00;99654.88;5053518;28;20107;-59
2023/03/13 06:33:15;;;;;;;12.57;4.65;;;;;;;11.97;100.00;99652.38;5052827;28;20374;-59
2023/03/13 06:35:42;;;;;;;16.20;4.70;;;;;;;11.98;100.00;99648.91;5053364;28;20362;-59
2023/03/13 06:38:09;;;;;;;14.93;4.50;;;;;;;12.00;100.00;99647.22;5053148;28;20031;-59
2023/03/13 06:40:34;;;;;;;14.07;4.80;;;;;;;12.00;100.00;99652.38;5052932;28;20052;-59
2023/03/13 06:43:00;;;;;;;20.90;5.10;;;;;;;12.04;100.00;99654.09;5052787;28;20746;-59
2023/03/13 06:45:25;;;;;;;14.90;5.25;;;;;;;11.99;100.00;99655.81;5053201;28;20028;-59
2023/03/13 06:47:51;;;;;;;12.18;5.25;;;;;;;12.00;100.00;99652.38;5053021;28;20021;-58
2023/03/13 06:50:16;;;;;;;12.88;5.15;;;;;;;12.01;100.00;99654.09;5052919;28;20017;-59
2023/03/13 06:52:42;;;;;;;15.00;5.68;;;;;;;12.01;100.00;99654.09;5053274;28;20469;-59
2023/03/13 06:55:08;;;;;;;14.40;4.97;;;;;;;12.02;100.00;99659.28;5052139;28;20037;-59
2023/03/13 06:57:33;;;;;;;12.00;4.68;;;;;;;12.05;100.00;99650.66;5052679;28;20055;-59
2023/03/13 06:59:59;;;;;;;12.75;4.93;;;;;;;12.07;100.00;99632.59;5052403;28;20036;-59
2023/03/13 07:02:24;;;;;;;17.90;5.32;;;;;;;12.12;100.00;99639.53;5052087;28;20033;-59
2023/03/13 07:04:50;;;;;;;14.85;5.53;;;;;;;12.13;100.00;99658.44;5052948;28;20071;-59
2023/03/13 07:07:15;;;;;;;16.65;4.93;;;;;;;12.13;100.00;99651.56;5052265;28;20049;-58
2023/03/13 07:09:40;;;;;;;14.65;5.00;;;;;;;12.15;100.00;99651.59;5051992;28;20029;-59
2023/03/13 07:12:06;;;;;;;13.32;4.88;;;;;;;12.17;100.00;99634.34;5052292;28;20025;-59
2023/03/13 07:14:31;;;;;;;14.38;4.93;;;;;;;12.19;100.00;99642.97;5052509;28;20049;-59
2023/03/13 07:16:58;;;;;;;18.33;4.80;;;;;;;12.19;100.00;99648.16;5051610;28;20108;-59
2023/03/13 07:19:25;;;;;;;13.32;5.15;;;;;;;12.29;100.00;99638.69;5052538;28;20124;-59
2023/03/13 07:21:51;;;;;;;16.60;4.85;;;;;;;12.31;100.00;99629.25;5051979;28;20029;-59
2023/03/13 07:24:17;;;;;;;15.32;4.93;;;;;;;12.29;100.00;99633.53;5051994;28;20021;-59
2023/03/13 07:26:42;;;;;;;15.38;5.00;;;;;;;12.30;100.00;99630.09;5052496;28;20067;-59
2023/03/13 07:29:08;;;;;;;15.75;5.15;;;;;;;12.35;100.00;99623.22;5051363;28;20389;-58
2023/03/13 07:31:34;;;;;;;16.33;5.43;;;;;;;12.35;100.00;99638.72;5052387;28;20025;-58
2023/03/13 07:33:59;;;;;;;13.75;5.05;;;;;;;12.39;100.00;99642.19;5051986;28;20044;-59
2023/03/13 07:36:24;;;;;;;12.25;4.30;;;;;;;12.45;100.00;99648.22;5051741;28;20384;-59
2023/03/13 07:38:51;;;;;;;15.73;4.28;;;;;;;12.48;100.00;99655.97;5051838;28;20457;-59
2023/03/13 07:41:17;;;;;;;17.20;4.63;;;;;;;12.50;100.00;99649.09;5051927;28;20031;-59
2023/03/13 07:43:43;;;;;;;14.52;3.70;;;;;;;12.50;100.00;99633.59;5051508;28;20045;-59
2023/03/13 07:46:12;;;;;;;15.18;4.72;;;;;;;12.53;100.00;99653.41;5051377;28;20479;-59
2023/03/13 07:48:40;;;;;;;13.68;4.40;;;;;;;12.50;100.00;99643.06;5052082;28;20465;-59
2023/03/13 07:51:10;;;;;;;20.55;4.88;;;;;;;12.47;100.00;99651.69;5051176;28;20469;-59
2023/03/13 07:53:35;;;;;;;16.20;4.95;;;;;;;12.46;100.00;99643.91;5052025;28;20067;-59
2023/03/13 07:56:06;;;;;;;13.10;4.45;;;;;;;12.39;100.00;99650.78;5051686;28;20053;-59
2023/03/13 07:58:34;;;;;;;14.82;4.03;;;;;;;12.37;100.00;99646.47;5051431;28;20037;-59
2023/03/13 08:01:00;;;;;;;18.45;5.10;;;;;;;12.39;100.00;99648.19;5051802;28;20036;-58
2023/03/13 08:03:26;;;;;;;15.13;4.30;;;;;;;12.38;100.00;99638.72;5052094;28;20049;-59
2023/03/13 08:05:59;;;;;;;14.73;4.47;;;;;;;12.44;100.00;99654.25;5050923;28;20071;-59
2023/03/13 08:08:25;;;;;;;14.63;4.50;;;;;;;12.54;100.00;99634.47;5051026;28;20476;-59
2023/03/13 08:10:50;;;;;;;13.90;4.43;;;;;;;12.64;100.00;99640.50;5050723;28;20021;-58
2023/03/13 08:13:15;;;;;;;18.73;5.00;;;;;;;12.69;100.00;99641.38;5050155;28;20388;-59
2023/03/13 08:15:40;;;;;;;15.18;5.43;;;;;;;12.77;100.00;99618.09;5051072;28;20033;-58
2023/03/13 08:18:06;;;;;;;15.95;4.60;;;;;;;12.79;100.00;99635.34;5050145;28;20028;-59
2023/03/13 08:20:31;;;;;;;12.18;4.13;;;;;;;12.80;100.00;99631.91;5050786;28;20048;-59
2023/03/13 08:22:56;;;;;;;12.57;5.10;;;;;;;12.84;100.00;99625.88;5050505;28;20021;-59
2023/03/13 08:25:22;;;;;;;16.67;4.97;;;;;;;12.88;100.00;99618.13;5050259;28;20031;-59
2023/03/13 08:27:47;;;;;;;15.63;4.10;;;;;;;12.90;100.00;99608.63;5050803;28;20151;-59
2023/03/13 08:30:13;;;;;;;13.48;4.35;;;;;;;12.91;100.00;99628.47;5050719;28;20040;-59
2023/03/13 08:32:38;;;;;;;12.80;4.47;;;;;;;12.88;100.00;99608.63;5050383;28;20032;-59
2023/03/13 08:35:04;;;;;;;11.63;4.45;;;;;;;12.71;100.00;99631.06;5050257;28;20021;-59
2023/03/13 08:37:29;;;;;;;12.00;4.00;;;;;;;12.63;100.00;99623.28;5050672;28;20024;-59
2023/03/13 08:39:55;;;;;;;13.02;4.32;;;;;;;12.58;100.00;99627.59;5052772;28;20061;-59
2023/03/13 08:42:21;;;;;;;11.32;4.18;;;;;;;12.50;100.00;99620.66;5054242;28;20018;-58
2023/03/13 08:44:46;;;;;;;12.13;4.13;;;;;;;12.44;100.00;99618.06;5054324;28;20100;-59
2023/03/13 08:47:12;;;;;;;18.70;4.75;;;;;;;12.38;100.00;99618.03;5053336;28;20385;-58
2023/03/13 08:49:37;;;;;;;13.57;4.05;;;;;;;12.34;100.00;99618.91;5054049;28;20033;-59
2023/03/13 08:52:04;;;;;;;12.23;4.30;;;;;;;12.35;100.00;99610.31;5053621;28;20419;-59
2023/03/13 08:54:30;;;;;;;15.73;4.93;;;;;;;12.38;100.00;99614.59;5053131;28;20029;-58
2023/03/13 08:56:55;;;;;;;14.65;4.90;;;;;;;12.47;100.00;99627.53;5053752;28;20687;-59
2023/03/13 08:59:20;;;;;;;14.50;4.82;;;;;;;12.58;100.00;99637.94;5053869;28;20040;-59
2023/03/13 09:01:46;;;;;;;10.13;4.00;;;;;;;12.70;100.00;99619.84;5052803;28;20036;-59
2023/03/13 09:04:11;;;;;;;12.07;3.30;;;;;;;12.83;100.00;99611.25;5053270;28;20543;-58
2023/03/13 09:06:38;;;;;;;13.73;3.60;;;;;;;13.04;100.00;99598.28;5017853;28;1039310;-58
2023/03/13 09:09:05;;;;;;;12.85;3.85;;;;;;;13.21;99.77;99598.28;5053610;28;20109;-59
2023/03/13 09:11:30;;;;;;;11.50;3.22;;;;;;;13.33;98.83;99595.69;5054782;28;20044;-59
2023/03/13 09:13:59;;;;;;;8.43;2.88;;;;;;;13.38;97.42;99578.44;5054627;28;20060;-58
2023/03/13 09:16:27;;;;;;;9.63;3.30;;;;;;;13.37;96.68;99586.22;5053905;28;20127;-59
2023/03/13 09:18:54;;;;;;;9.40;3.15;;;;;;;13.32;97.06;99578.41;5054370;28;20067;-58
2023/03/13 09:21:28;;;;;;;8.90;2.88;;;;;;;13.36;97.88;99566.34;5054015;28;20025;-59
2023/03/13 09:23:53;;;;;;;9.93;3.50;;;;;;;13.48;97.56;99559.44;5054218;28;20090;-59
2023/03/13 09:26:20;;;;;;;11.48;3.42;;;;;;;13.71;96.29;99563.69;5054598;28;20021;-58
2023/03/13 09:28:45;;;;;;;8.77;3.30;;;;;;;13.86;95.96;99564.50;5054076;28;20021;-58
2023/03/13 09:31:12;;;;;;;16.15;4.38;;;;;;;14.08;95.93;99550.53;5053959;28;20032;-59
2023/03/13 09:33:37;;;;;;;10.50;3.47;;;;;;;14.31;94.40;99565.09;5054699;28;20021;-58
2023/03/13 09:36:03;;;;;;;8.52;3.67;;;;;;;14.49;94.32;99557.19;5053622;28;20354;-58
2023/03/13 09:38:29;;;;;;;8.63;3.42;;;;;;;14.71;92.01;99545.84;5054085;28;20155;-59
2023/03/13 09:40:54;;;;;;;10.05;3.47;;;;;;;14.80;89.82;99518.06;5054194;28;20119;-59
2023/03/13 09:43:35;;;;;;;12.95;4.03;;;;;;;14.76;89.02;99537.13;5053378;28;20055;-58
2023/03/13 09:46:04;;;;;;;10.57;3.58;;;;;;;14.70;89.37;99544.13;5053880;28;20024;-58
2023/03/13 09:48:33;;;;;;;11.70;3.70;;;;;;;14.96;88.42;99521.41;5054154;28;20036;-58
2023/03/13 09:51:22;;;;;;;8.57;3.33;;;;;;;15.12;86.86;99524.69;5052039;28;20021;-58
2023/03/13 09:53:54;;;;;;;10.70;3.20;;;;;;;15.08;86.11;99528.19;5054086;28;20070;-59
2023/03/13 09:56:23;;;;;;;9.25;2.97;;;;;;;14.92;85.35;99521.44;5054154;28;20029;-58
2023/03/13 09:58:54;;;;;;;9.63;3.08;;;;;;;14.69;85.99;99545.84;5053719;28;20021;-58
2023/03/13 10:01:25;;;;;;;8.50;3.00;;;;;;;14.55;86.50;99537.28;5053768;28;20110;-58
2023/03/13 10:04:06;;;;;;;10.77;3.00;;;;;;;14.57;86.67;99526.03;5053440;28;20029;-59
2023/03/13 10:06:40;;;;;;;9.27;2.70;;;;;;;14.49;85.71;99526.09;5053542;28;20124;-59
2023/03/13 10:09:19;;;;;;;6.38;2.60;;;;;;;14.46;86.76;99535.59;5053300;28;20048;-58
2023/03/13 10:12:03;;;;;;;11.23;2.85;;;;;;;14.65;87.64;99531.19;5052915;28;20089;-58
2023/03/13 10:14:34;;;;;;;8.13;2.75;;;;;;;15.07;83.54;99513.50;5053499;28;20321;-58
2023/03/13 10:17:09;;;;;;;6.70;2.10;;;;;;;15.20;83.45;99513.38;5053107;28;20021;-58
2023/03/13 10:19:38;;;;;;;5.85;2.60;;;;;;;15.11;82.44;99520.38;5052677;28;20048;-58
2023/03/13 10:22:12;;;;;;;6.75;2.15;;;;;;;15.12;81.29;99505.69;5052964;28;20025;-58
2023/03/13 10:24:53;;;;;;;6.50;2.50;;;;;;;15.37;82.53;99505.41;5053031;28;20036;-58
2023/03/13 10:27:18;;;;;;;7.38;2.40;;;;;;;15.32;80.62;99502.84;5053082;28;20029;-58
2023/03/13 10:29:44;;;;;;;8.90;2.35;;;;;;;15.40;79.83;99507.94;5053336;28;20055;-58
2023/03/13 10:32:13;;;;;;;7.28;2.42;;;;;;;15.42;79.81;99514.00;5052378;28;20096;-58
2023/03/13 10:34:59;;;;;;;6.28;2.28;;;;;;;15.44;80.25;99489.75;5052774;28;20595;-57
2023/03/13 10:37:41;;;;;;;6.43;2.28;;;;;;;15.34;79.57;99475.16;5052929;28;20503;-58
2023/03/13 10:40:18;;;;;;;8.30;2.20;;;;;;;15.72;78.09;99476.38;5052041;28;20099;-58
2023/03/13 10:42:44;;;;;;;5.45;2.22;;;;;;;15.74;77.62;99487.63;5052952;28;20112;-58
2023/03/13 10:45:15;;;;;;;6.60;2.30;;;;;;;15.97;77.09;99494.25;5052683;28;20041;-58
2023/03/13 10:47:40;;;;;;;7.03;2.63;;;;;;;15.92;75.95;99478.75;5052252;28;20036;-58
2023/03/13 10:50:06;;;;;;;6.78;2.20;;;;;;;15.80;76.79;99477.16;5052840;28;20029;-58
2023/03/13 10:52:43;;;;;;;7.13;2.00;;;;;;;15.88;76.08;99465.81;5053055;28;20040;-59
2023/03/13 10:55:12;;;;;;;7.15;1.98;;;;;;;15.71;77.32;99492.88;5052407;28;20035;-58
2023/03/13 10:57:40;;;;;;;6.05;1.92;;;;;;;15.59;77.74;99485.22;5052734;28;20358;-58
2023/03/13 11:00:33;;;;;;;8.05;2.47;;;;;;;15.42;80.34;99465.50;5051972;28;20029;-58
2023/03/13 11:02:58;;;;;;;6.82;2.22;;;;;;;15.34;80.55;99459.56;5051892;28;20110;-56
2023/03/13 11:05:42;;;;;;;5.97;1.90;;;;;;;15.36;81.18;99442.22;5052406;28;20052;-56
2023/03/13 11:08:21;;;;;;;5.75;2.17;;;;;;;15.24;80.93;99452.78;5051752;28;20021;-57
2023/03/13 11:11:16;;;;;;;5.15;2.22;;;;;;;15.27;81.64;99473.50;5052866;28;20478;-57
2023/03/13 11:13:43;;;;;;;6.57;2.00;;;;;;;15.21;80.10;99469.25;5052440;28;20117;-57
2023/03/13 11:16:23;;;;;;;5.93;2.20;;;;;;;15.25;79.71;99454.50;5051446;28;20024;-57
2023/03/13 11:19:12;;;;;;;6.15;2.15;;;;;;;15.50;79.57;99460.22;5052327;28;20431;-57
2023/03/13 11:22:06;;;;;;;5.32;1.88;;;;;;;15.55;78.94;99470.56;5051948;28;20025;-57